sensor_id;sensor_type;location;lat;lon;timestamp;P1;durP1;ratioP1;P2;durP2;ratioP2
76693;SDS011;69667;52.136;5.424;2024-03-08T00:00:14;7.20;;;4.15;;
76693;SDS011;69667;52.136;5.424;2024-03-08T00:02:46;9.68;;;3.17;;
76693;SDS011;69667;52.136;5.424;2024-03-08T00:05:15;9.60;;;4.95;;
76693;SDS011;69667;52.136;5.424;2024-03-08T00:07:42;9.20;;;3.60;;
76693;SDS011;69667;52.136;5.424;2024-03-08T00:10:10;11.23;;;4.50;;
76693;SDS011;69667;52.136;5.424;2024-03-08T00:12:42;10.75;;;4.65;;
76693;SDS011;69667;52.136;5.424;2024-03-08T00:15:14;11.90;;;4.63;;
76693;SDS011;69667;52.136;5.424;2024-03-08T00:17:45;14.52;;;5.20;;
76693;SDS011;69667;52.136;5.424;2024-03-08T00:20:14;10.43;;;4.80;;
76693;SDS011;69667;52.136;5.424;2024-03-08T00:22:45;10.02;;;5.40;;
76693;SDS011;69667;52.136;5.424;2024-03-08T00:25:13;13.45;;;6.03;;
76693;SDS011;69667;52.136;5.424;2024-03-08T00:27:41;12.77;;;4.63;;
76693;SDS011;69667;52.136;5.424;2024-03-08T00:32:40;7.07;;;3.65;;
76693;SDS011;69667;52.136;5.424;2024-03-08T00:35:13;8.25;;;3.63;;
76693;SDS011;69667;52.136;5.424;2024-03-08T00:37:40;8.25;;;4.22;;
76693;SDS011;69667;52.136;5.424;2024-03-08T00:40:09;9.70;;;3.55;;
76693;SDS011;69667;52.136;5.424;2024-03-08T00:42:36;5.32;;;2.58;;
76693;SDS011;69667;52.136;5.424;2024-03-08T00:45:05;8.32;;;3.20;;
76693;SDS011;69667;52.136;5.424;2024-03-08T00:47:33;10.20;;;3.67;;
76693;SDS011;69667;52.136;5.424;2024-03-08T00:50:00;5.90;;;3.90;;
76693;SDS011;69667;52.136;5.424;2024-03-08T00:52:31;6.28;;;2.55;;
76693;SDS011;69667;52.136;5.424;2024-03-08T00:55:02;11.90;;;4.88;;
76693;SDS011;69667;52.136;5.424;2024-03-08T00:57:30;14.50;;;4.60;;
76693;SDS011;69667;52.136;5.424;2024-03-08T00:59:57;11.45;;;5.05;;
76693;SDS011;69667;52.136;5.424;2024-03-08T01:02:24;10.80;;;3.97;;
76693;SDS011;69667;52.136;5.424;2024-03-08T01:04:52;10.30;;;3.95;;
76693;SDS011;69667;52.136;5.424;2024-03-08T01:07:19;11.00;;;4.65;;
76693;SDS011;69667;52.136;5.424;2024-03-08T01:09:46;13.57;;;5.57;;
76693;SDS011;69667;52.136;5.424;2024-03-08T01:12:14;10.38;;;4.72;;
76693;SDS011;69667;52.136;5.424;2024-03-08T01:14:43;8.85;;;4.55;;
76693;SDS011;69667;52.136;5.424;2024-03-08T01:17:14;5.72;;;3.30;;
76693;SDS011;69667;52.136;5.424;2024-03-08T01:19:48;11.93;;;4.35;;
76693;SDS011;69667;52.136;5.424;2024-03-08T01:22:15;10.30;;;4.60;;
76693;SDS011;69667;52.136;5.424;2024-03-08T01:24:43;11.93;;;4.88;;
76693;SDS011;69667;52.136;5.424;2024-03-08T01:27:10;11.60;;;4.18;;
76693;SDS011;69667;52.136;5.424;2024-03-08T01:29:37;16.35;;;4.13;;
76693;SDS011;69667;52.136;5.424;2024-03-08T01:32:05;11.15;;;3.85;;
76693;SDS011;69667;52.136;5.424;2024-03-08T01:34:33;11.02;;;5.20;;
76693;SDS011;69667;52.136;5.424;2024-03-08T01:37:01;10.50;;;4.45;;
76693;SDS011;69667;52.136;5.424;2024-03-08T01:39:28;8.27;;;4.65;;
76693;SDS011;69667;52.136;5.424;2024-03-08T01:41:55;6.95;;;3.58;;
76693;SDS011;69667;52.136;5.424;2024-03-08T01:44:22;12.02;;;5.47;;
76693;SDS011;69667;52.136;5.424;2024-03-08T01:46:49;4.53;;;3.05;;
76693;SDS011;69667;52.136;5.424;2024-03-08T01:49:20;9.30;;;4.07;;
76693;SDS011;69667;52.136;5.424;2024-03-08T01:51:48;12.05;;;5.22;;
76693;SDS011;69667;52.136;5.424;2024-03-08T01:54:16;9.68;;;5.10;;
76693;SDS011;69667;52.136;5.424;2024-03-08T01:56:45;8.75;;;3.88;;
76693;SDS011;69667;52.136;5.424;2024-03-08T01:59:13;13.77;;;4.28;;
76693;SDS011;69667;52.136;5.424;2024-03-08T02:01:41;11.23;;;4.60;;
76693;SDS011;69667;52.136;5.424;2024-03-08T02:04:09;6.43;;;2.85;;
76693;SDS011;69667;52.136;5.424;2024-03-08T02:06:39;11.98;;;4.95;;
76693;SDS011;69667;52.136;5.424;2024-03-08T02:09:08;9.85;;;4.75;;
76693;SDS011;69667;52.136;5.424;2024-03-08T02:11:37;11.70;;;4.75;;
76693;SDS011;69667;52.136;5.424;2024-03-08T02:14:04;11.55;;;4.25;;
76693;SDS011;69667;52.136;5.424;2024-03-08T02:19:00;9.82;;;4.30;;
76693;SDS011;69667;52.136;5.424;2024-03-08T02:21:27;8.95;;;4.30;;
76693;SDS011;69667;52.136;5.424;2024-03-08T02:23:56;9.23;;;4.35;;
76693;SDS011;69667;52.136;5.424;2024-03-08T02:26:23;6.53;;;4.13;;
76693;SDS011;69667;52.136;5.424;2024-03-08T02:28:50;11.55;;;5.82;;
76693;SDS011;69667;52.136;5.424;2024-03-08T02:31:18;11.68;;;4.50;;
76693;SDS011;69667;52.136;5.424;2024-03-08T02:33:45;5.47;;;3.03;;
76693;SDS011;69667;52.136;5.424;2024-03-08T02:36:14;9.20;;;4.43;;
76693;SDS011;69667;52.136;5.424;2024-03-08T02:38:43;12.52;;;4.20;;
76693;SDS011;69667;52.136;5.424;2024-03-08T02:41:10;11.73;;;4.68;;
76693;SDS011;69667;52.136;5.424;2024-03-08T02:43:37;6.85;;;4.53;;
76693;SDS011;69667;52.136;5.424;2024-03-08T02:46:04;7.22;;;4.30;;
76693;SDS011;69667;52.136;5.424;2024-03-08T02:48:32;11.30;;;5.47;;
76693;SDS011;69667;52.136;5.424;2024-03-08T02:50:59;7.03;;;4.18;;
76693;SDS011;69667;52.136;5.424;2024-03-08T02:53:26;7.68;;;3.00;;
76693;SDS011;69667;52.136;5.424;2024-03-08T02:55:54;9.15;;;3.53;;
76693;SDS011;69667;52.136;5.424;2024-03-08T02:58:21;12.75;;;3.13;;
76693;SDS011;69667;52.136;5.424;2024-03-08T03:00:48;8.20;;;4.40;;
76693;SDS011;69667;52.136;5.424;2024-03-08T03:03:16;8.68;;;4.63;;
76693;SDS011;69667;52.136;5.424;2024-03-08T03:05:43;7.38;;;3.72;;
76693;SDS011;69667;52.136;5.424;2024-03-08T03:08:14;6.80;;;3.40;;
76693;SDS011;69667;52.136;5.424;2024-03-08T03:10:44;7.00;;;2.80;;
76693;SDS011;69667;52.136;5.424;2024-03-08T03:13:12;9.32;;;5.60;;
76693;SDS011;69667;52.136;5.424;2024-03-08T03:15:41;7.82;;;5.13;;
76693;SDS011;69667;52.136;5.424;2024-03-08T03:18:11;7.68;;;3.25;;
76693;SDS011;69667;52.136;5.424;2024-03-08T03:20:38;9.02;;;4.40;;
76693;SDS011;69667;52.136;5.424;2024-03-08T03:23:10;9.77;;;4.25;;
76693;SDS011;69667;52.136;5.424;2024-03-08T03:25:42;8.95;;;3.88;;
76693;SDS011;69667;52.136;5.424;2024-03-08T03:28:10;9.50;;;4.43;;
76693;SDS011;69667;52.136;5.424;2024-03-08T03:30:41;7.07;;;2.80;;
76693;SDS011;69667;52.136;5.424;2024-03-08T03:33:29;7.95;;;4.63;;
76693;SDS011;69667;52.136;5.424;2024-03-08T03:35:56;8.57;;;4.53;;
76693;SDS011;69667;52.136;5.424;2024-03-08T03:38:23;6.10;;;2.97;;
76693;SDS011;69667;52.136;5.424;2024-03-08T03:40:52;10.32;;;5.53;;
76693;SDS011;69667;52.136;5.424;2024-03-08T03:43:23;7.80;;;4.97;;
76693;SDS011;69667;52.136;5.424;2024-03-08T03:45:50;9.30;;;4.03;;
76693;SDS011;69667;52.136;5.424;2024-03-08T03:48:17;10.68;;;4.35;;
76693;SDS011;69667;52.136;5.424;2024-03-08T03:50:44;8.18;;;3.25;;
76693;SDS011;69667;52.136;5.424;2024-03-08T03:53:12;12.68;;;4.93;;
76693;SDS011;69667;52.136;5.424;2024-03-08T03:55:40;12.38;;;4.93;;
76693;SDS011;69667;52.136;5.424;2024-03-08T03:58:09;5.65;;;2.97;;
76693;SDS011;69667;52.136;5.424;2024-03-08T04:00:38;8.20;;;4.05;;
76693;SDS011;69667;52.136;5.424;2024-03-08T04:03:06;9.80;;;4.30;;
76693;SDS011;69667;52.136;5.424;2024-03-08T04:05:36;11.55;;;6.20;;
76693;SDS011;69667;52.136;5.424;2024-03-08T04:08:04;11.75;;;4.97;;
76693;SDS011;69667;52.136;5.424;2024-03-08T04:10:31;11.23;;;5.10;;
76693;SDS011;69667;52.136;5.424;2024-03-08T04:12:58;6.78;;;4.88;;
76693;SDS011;69667;52.136;5.424;2024-03-08T04:15:43;6.50;;;4.20;;
76693;SDS011;69667;52.136;5.424;2024-03-08T04:18:15;12.00;;;3.67;;
76693;SDS011;69667;52.136;5.424;2024-03-08T04:20:42;5.97;;;3.25;;
76693;SDS011;69667;52.136;5.424;2024-03-08T04:23:09;9.85;;;4.70;;
76693;SDS011;69667;52.136;5.424;2024-03-08T04:25:36;8.63;;;3.72;;
76693;SDS011;69667;52.136;5.424;2024-03-08T04:28:04;16.45;;;5.63;;
76693;SDS011;69667;52.136;5.424;2024-03-08T04:30:31;12.35;;;4.15;;
76693;SDS011;69667;52.136;5.424;2024-03-08T04:32:58;7.68;;;3.47;;
76693;SDS011;69667;52.136;5.424;2024-03-08T04:35:25;10.70;;;3.70;;
76693;SDS011;69667;52.136;5.424;2024-03-08T04:37:52;10.43;;;5.40;;
76693;SDS011;69667;52.136;5.424;2024-03-08T04:40:19;6.97;;;4.20;;
76693;SDS011;69667;52.136;5.424;2024-03-08T04:42:46;5.38;;;3.55;;
76693;SDS011;69667;52.136;5.424;2024-03-08T04:45:15;9.25;;;5.32;;
76693;SDS011;69667;52.136;5.424;2024-03-08T04:47:42;5.85;;;2.97;;
76693;SDS011;69667;52.136;5.424;2024-03-08T04:50:10;8.75;;;4.28;;
76693;SDS011;69667;52.136;5.424;2024-03-08T04:52:38;7.93;;;4.32;;
76693;SDS011;69667;52.136;5.424;2024-03-08T04:55:05;10.65;;;3.97;;
76693;SDS011;69667;52.136;5.424;2024-03-08T04:57:33;8.35;;;4.05;;
76693;SDS011;69667;52.136;5.424;2024-03-08T05:00:00;11.07;;;5.55;;
76693;SDS011;69667;52.136;5.424;2024-03-08T05:02:28;9.25;;;4.18;;
76693;SDS011;69667;52.136;5.424;2024-03-08T05:04:56;5.72;;;3.58;;
76693;SDS011;69667;52.136;5.424;2024-03-08T05:07:23;11.13;;;4.28;;
76693;SDS011;69667;52.136;5.424;2024-03-08T05:09:50;8.77;;;4.20;;
76693;SDS011;69667;52.136;5.424;2024-03-08T05:12:18;10.15;;;4.78;;
76693;SDS011;69667;52.136;5.424;2024-03-08T05:14:46;8.55;;;3.28;;
76693;SDS011;69667;52.136;5.424;2024-03-08T05:17:16;5.80;;;3.00;;
76693;SDS011;69667;52.136;5.424;2024-03-08T05:19:45;8.48;;;4.25;;
76693;SDS011;69667;52.136;5.424;2024-03-08T05:22:12;4.13;;;3.03;;
76693;SDS011;69667;52.136;5.424;2024-03-08T05:24:39;7.05;;;3.75;;
76693;SDS011;69667;52.136;5.424;2024-03-08T05:27:06;9.30;;;4.43;;
76693;SDS011;69667;52.136;5.424;2024-03-08T05:29:33;8.70;;;2.92;;
76693;SDS011;69667;52.136;5.424;2024-03-08T05:32:00;9.18;;;5.20;;
76693;SDS011;69667;52.136;5.424;2024-03-08T05:34:27;8.40;;;4.43;;
76693;SDS011;69667;52.136;5.424;2024-03-08T05:36:55;7.32;;;4.20;;
76693;SDS011;69667;52.136;5.424;2024-03-08T05:39:24;10.18;;;3.92;;
76693;SDS011;69667;52.136;5.424;2024-03-08T05:41:51;8.15;;;4.13;;
76693;SDS011;69667;52.136;5.424;2024-03-08T05:44:19;8.88;;;4.13;;
76693;SDS011;69667;52.136;5.424;2024-03-08T05:46:47;9.75;;;5.10;;
76693;SDS011;69667;52.136;5.424;2024-03-08T05:49:14;10.05;;;5.68;;
76693;SDS011;69667;52.136;5.424;2024-03-08T05:51:45;9.55;;;5.47;;
76693;SDS011;69667;52.136;5.424;2024-03-08T05:54:14;8.75;;;3.40;;
76693;SDS011;69667;52.136;5.424;2024-03-08T05:56:45;6.93;;;3.67;;
76693;SDS011;69667;52.136;5.424;2024-03-08T05:59:14;7.40;;;2.97;;
76693;SDS011;69667;52.136;5.424;2024-03-08T06:01:42;13.57;;;5.82;;
76693;SDS011;69667;52.136;5.424;2024-03-08T06:04:11;10.48;;;4.07;;
76693;SDS011;69667;52.136;5.424;2024-03-08T06:06:39;7.22;;;4.15;;
76693;SDS011;69667;52.136;5.424;2024-03-08T06:09:08;6.55;;;3.78;;
76693;SDS011;69667;52.136;5.424;2024-03-08T06:11:42;11.60;;;4.20;;
76693;SDS011;69667;52.136;5.424;2024-03-08T06:14:09;6.60;;;3.40;;
76693;SDS011;69667;52.136;5.424;2024-03-08T06:16:36;7.78;;;3.80;;
76693;SDS011;69667;52.136;5.424;2024-03-08T06:19:05;6.30;;;4.07;;
76693;SDS011;69667;52.136;5.424;2024-03-08T06:21:33;10.30;;;5.40;;
76693;SDS011;69667;52.136;5.424;2024-03-08T06:24:00;7.82;;;3.58;;
76693;SDS011;69667;52.136;5.424;2024-03-08T06:26:27;7.18;;;3.65;;
76693;SDS011;69667;52.136;5.424;2024-03-08T06:28:59;6.10;;;3.00;;
76693;SDS011;69667;52.136;5.424;2024-03-08T06:31:26;4.57;;;3.00;;
76693;SDS011;69667;52.136;5.424;2024-03-08T06:33:59;13.25;;;5.97;;
76693;SDS011;69667;52.136;5.424;2024-03-08T06:36:27;4.72;;;3.05;;
76693;SDS011;69667;52.136;5.424;2024-03-08T06:38:54;11.15;;;3.33;;
76693;SDS011;69667;52.136;5.424;2024-03-08T06:41:23;6.63;;;5.43;;
76693;SDS011;69667;52.136;5.424;2024-03-08T06:43:51;7.07;;;4.07;;
76693;SDS011;69667;52.136;5.424;2024-03-08T06:46:18;8.07;;;3.60;;
76693;SDS011;69667;52.136;5.424;2024-03-08T06:48:47;4.43;;;2.65;;
76693;SDS011;69667;52.136;5.424;2024-03-08T06:51:17;9.23;;;5.18;;
76693;SDS011;69667;52.136;5.424;2024-03-08T06:53:45;7.95;;;3.97;;
76693;SDS011;69667;52.136;5.424;2024-03-08T06:56:12;15.52;;;5.90;;
76693;SDS011;69667;52.136;5.424;2024-03-08T06:58:40;10.32;;;4.85;;
76693;SDS011;69667;52.136;5.424;2024-03-08T07:01:08;6.90;;;4.28;;
76693;SDS011;69667;52.136;5.424;2024-03-08T07:03:41;5.57;;;3.28;;
76693;SDS011;69667;52.136;5.424;2024-03-08T07:06:18;6.80;;;4.43;;
76693;SDS011;69667;52.136;5.424;2024-03-08T07:08:48;6.20;;;4.00;;
76693;SDS011;69667;52.136;5.424;2024-03-08T07:11:39;12.85;;;5.35;;
76693;SDS011;69667;52.136;5.424;2024-03-08T07:14:11;7.72;;;4.65;;
76693;SDS011;69667;52.136;5.424;2024-03-08T07:16:39;9.45;;;5.35;;
76693;SDS011;69667;52.136;5.424;2024-03-08T07:19:06;5.60;;;3.58;;
76693;SDS011;69667;52.136;5.424;2024-03-08T07:21:33;11.98;;;6.55;;
76693;SDS011;69667;52.136;5.424;2024-03-08T07:24:00;11.20;;;6.50;;
76693;SDS011;69667;52.136;5.424;2024-03-08T07:26:27;11.45;;;6.68;;
76693;SDS011;69667;52.136;5.424;2024-03-08T07:28:54;15.07;;;6.93;;
76693;SDS011;69667;52.136;5.424;2024-03-08T07:31:21;14.80;;;6.75;;
76693;SDS011;69667;52.136;5.424;2024-03-08T07:34:04;7.88;;;5.68;;
76693;SDS011;69667;52.136;5.424;2024-03-08T07:36:34;16.98;;;7.00;;
76693;SDS011;69667;52.136;5.424;2024-03-08T07:39:04;18.00;;;7.93;;
76693;SDS011;69667;52.136;5.424;2024-03-08T07:41:38;16.42;;;8.20;;
76693;SDS011;69667;52.136;5.424;2024-03-08T07:44:16;12.98;;;6.25;;
76693;SDS011;69667;52.136;5.424;2024-03-08T07:46:46;13.10;;;7.03;;
76693;SDS011;69667;52.136;5.424;2024-03-08T07:49:13;15.82;;;7.85;;
76693;SDS011;69667;52.136;5.424;2024-03-08T07:51:42;14.75;;;8.10;;
76693;SDS011;69667;52.136;5.424;2024-03-08T07:54:09;18.00;;;8.35;;
76693;SDS011;69667;52.136;5.424;2024-03-08T07:56:36;15.82;;;8.25;;
76693;SDS011;69667;52.136;5.424;2024-03-08T07:59:04;18.65;;;8.35;;
76693;SDS011;69667;52.136;5.424;2024-03-08T08:01:32;18.55;;;7.88;;
76693;SDS011;69667;52.136;5.424;2024-03-08T08:04:01;9.85;;;4.65;;
76693;SDS011;69667;52.136;5.424;2024-03-08T08:09:00;9.48;;;5.05;;
76693;SDS011;69667;52.136;5.424;2024-03-08T08:11:27;15.80;;;5.97;;
76693;SDS011;69667;52.136;5.424;2024-03-08T08:13:55;15.23;;;6.50;;
76693;SDS011;69667;52.136;5.424;2024-03-08T08:16:23;12.40;;;6.95;;
76693;SDS011;69667;52.136;5.424;2024-03-08T08:18:50;12.80;;;6.95;;
76693;SDS011;69667;52.136;5.424;2024-03-08T08:21:17;17.38;;;6.68;;
76693;SDS011;69667;52.136;5.424;2024-03-08T08:23:47;13.73;;;7.35;;
76693;SDS011;69667;52.136;5.424;2024-03-08T08:29:06;13.20;;;7.13;;
76693;SDS011;69667;52.136;5.424;2024-03-08T08:31:34;14.93;;;6.82;;
76693;SDS011;69667;52.136;5.424;2024-03-08T08:34:01;11.15;;;6.15;;
76693;SDS011;69667;52.136;5.424;2024-03-08T08:36:30;17.70;;;8.35;;
76693;SDS011;69667;52.136;5.424;2024-03-08T08:38:57;14.10;;;7.75;;
76693;SDS011;69667;52.136;5.424;2024-03-08T08:41:26;17.63;;;8.80;;
76693;SDS011;69667;52.136;5.424;2024-03-08T08:43:53;13.25;;;7.38;;
76693;SDS011;69667;52.136;5.424;2024-03-08T08:46:34;17.92;;;8.07;;
76693;SDS011;69667;52.136;5.424;2024-03-08T08:49:08;15.32;;;8.73;;
76693;SDS011;69667;52.136;5.424;2024-03-08T08:51:37;15.95;;;8.82;;
76693;SDS011;69667;52.136;5.424;2024-03-08T08:54:05;16.35;;;8.13;;
76693;SDS011;69667;52.136;5.424;2024-03-08T08:56:39;17.40;;;9.63;;
76693;SDS011;69667;52.136;5.424;2024-03-08T08:59:06;15.55;;;8.40;;
76693;SDS011;69667;52.136;5.424;2024-03-08T09:01:42;15.50;;;8.88;;
76693;SDS011;69667;52.136;5.424;2024-03-08T09:04:17;17.40;;;9.48;;
76693;SDS011;69667;52.136;5.424;2024-03-08T09:06:44;18.65;;;8.68;;
76693;SDS011;69667;52.136;5.424;2024-03-08T09:09:11;17.45;;;9.02;;
76693;SDS011;69667;52.136;5.424;2024-03-08T09:14:09;16.10;;;9.05;;
76693;SDS011;69667;52.136;5.424;2024-03-08T09:16:39;15.35;;;9.10;;
76693;SDS011;69667;52.136;5.424;2024-03-08T09:19:06;18.05;;;10.07;;
76693;SDS011;69667;52.136;5.424;2024-03-08T09:21:33;20.45;;;10.50;;
76693;SDS011;69667;52.136;5.424;2024-03-08T09:24:03;19.70;;;9.32;;
76693;SDS011;69667;52.136;5.424;2024-03-08T09:26:30;18.60;;;10.18;;
76693;SDS011;69667;52.136;5.424;2024-03-08T09:28:57;18.98;;;10.50;;
76693;SDS011;69667;52.136;5.424;2024-03-08T09:31:24;17.45;;;10.27;;
76693;SDS011;69667;52.136;5.424;2024-03-08T09:33:52;17.23;;;10.82;;
76693;SDS011;69667;52.136;5.424;2024-03-08T09:36:19;17.23;;;10.25;;
76693;SDS011;69667;52.136;5.424;2024-03-08T09:38:47;16.70;;;9.55;;
76693;SDS011;69667;52.136;5.424;2024-03-08T09:41:17;17.45;;;9.40;;
76693;SDS011;69667;52.136;5.424;2024-03-08T09:43:49;14.30;;;8.90;;
76693;SDS011;69667;52.136;5.424;2024-03-08T09:46:20;15.32;;;9.38;;
76693;SDS011;69667;52.136;5.424;2024-03-08T09:48:49;15.93;;;10.07;;
76693;SDS011;69667;52.136;5.424;2024-03-08T09:51:17;15.55;;;9.88;;
76693;SDS011;69667;52.136;5.424;2024-03-08T09:53:44;15.88;;;9.07;;
76693;SDS011;69667;52.136;5.424;2024-03-08T09:56:13;17.90;;;10.25;;
76693;SDS011;69667;52.136;5.424;2024-03-08T09:58:40;14.98;;;9.18;;
76693;SDS011;69667;52.136;5.424;2024-03-08T10:01:39;16.75;;;8.35;;
76693;SDS011;69667;52.136;5.424;2024-03-08T10:04:07;20.20;;;9.38;;
76693;SDS011;69667;52.136;5.424;2024-03-08T10:06:37;16.70;;;9.48;;
76693;SDS011;69667;52.136;5.424;2024-03-08T10:09:04;17.65;;;10.07;;
76693;SDS011;69667;52.136;5.424;2024-03-08T10:11:34;17.08;;;9.52;;
76693;SDS011;69667;52.136;5.424;2024-03-08T10:14:01;15.10;;;7.57;;
76693;SDS011;69667;52.136;5.424;2024-03-08T10:16:28;15.20;;;9.00;;
76693;SDS011;69667;52.136;5.424;2024-03-08T10:18:58;16.85;;;8.80;;
76693;SDS011;69667;52.136;5.424;2024-03-08T10:21:27;14.80;;;8.68;;
76693;SDS011;69667;52.136;5.424;2024-03-08T10:23:55;14.88;;;8.13;;
76693;SDS011;69667;52.136;5.424;2024-03-08T10:26:22;16.17;;;9.48;;
76693;SDS011;69667;52.136;5.424;2024-03-08T10:28:51;17.13;;;8.65;;
76693;SDS011;69667;52.136;5.424;2024-03-08T10:31:22;17.05;;;8.85;;
76693;SDS011;69667;52.136;5.424;2024-03-08T10:33:49;15.60;;;9.85;;
76693;SDS011;69667;52.136;5.424;2024-03-08T10:36:16;18.65;;;9.05;;
76693;SDS011;69667;52.136;5.424;2024-03-08T10:38:43;18.05;;;9.63;;
76693;SDS011;69667;52.136;5.424;2024-03-08T10:41:14;14.55;;;8.43;;
76693;SDS011;69667;52.136;5.424;2024-03-08T10:46:48;14.85;;;8.55;;
76693;SDS011;69667;52.136;5.424;2024-03-08T10:49:38;16.42;;;9.35;;
76693;SDS011;69667;52.136;5.424;2024-03-08T10:52:12;15.55;;;8.35;;
76693;SDS011;69667;52.136;5.424;2024-03-08T10:54:42;17.67;;;9.40;;
76693;SDS011;69667;52.136;5.424;2024-03-08T10:57:12;14.98;;;8.15;;
76693;SDS011;69667;52.136;5.424;2024-03-08T10:59:44;16.45;;;8.88;;
76693;SDS011;69667;52.136;5.424;2024-03-08T11:02:14;16.30;;;9.45;;
76693;SDS011;69667;52.136;5.424;2024-03-08T11:04:47;16.00;;;9.13;;
76693;SDS011;69667;52.136;5.424;2024-03-08T11:07:18;15.55;;;8.88;;
76693;SDS011;69667;52.136;5.424;2024-03-08T11:09:50;19.70;;;9.10;;
76693;SDS011;69667;52.136;5.424;2024-03-08T11:12:26;15.30;;;8.75;;
76693;SDS011;69667;52.136;5.424;2024-03-08T11:15:02;16.55;;;8.95;;
76693;SDS011;69667;52.136;5.424;2024-03-08T11:20:18;15.38;;;8.43;;
76693;SDS011;69667;52.136;5.424;2024-03-08T11:23:02;14.80;;;8.02;;
76693;SDS011;69667;52.136;5.424;2024-03-08T11:25:37;14.07;;;8.15;;
76693;SDS011;69667;52.136;5.424;2024-03-08T11:28:18;15.38;;;8.60;;
76693;SDS011;69667;52.136;5.424;2024-03-08T11:33:27;15.05;;;8.38;;
76693;SDS011;69667;52.136;5.424;2024-03-08T11:38:49;14.90;;;6.90;;
76693;SDS011;69667;52.136;5.424;2024-03-08T11:41:19;16.00;;;8.65;;
76693;SDS011;69667;52.136;5.424;2024-03-08T11:43:48;13.73;;;7.65;;
76693;SDS011;69667;52.136;5.424;2024-03-08T11:46:17;12.55;;;6.75;;
76693;SDS011;69667;52.136;5.424;2024-03-08T11:48:47;21.02;;;8.18;;
76693;SDS011;69667;52.136;5.424;2024-03-08T11:51:15;12.90;;;7.05;;
76693;SDS011;69667;52.136;5.424;2024-03-08T11:53:45;14.20;;;7.28;;
76693;SDS011;69667;52.136;5.424;2024-03-08T11:56:15;14.55;;;7.55;;
76693;SDS011;69667;52.136;5.424;2024-03-08T11:58:52;13.52;;;6.88;;
76693;SDS011;69667;52.136;5.424;2024-03-08T12:01:24;12.25;;;5.90;;
76693;SDS011;69667;52.136;5.424;2024-03-08T12:04:00;16.20;;;6.82;;
76693;SDS011;69667;52.136;5.424;2024-03-08T12:06:36;11.80;;;7.00;;
76693;SDS011;69667;52.136;5.424;2024-03-08T12:09:08;13.45;;;6.85;;
76693;SDS011;69667;52.136;5.424;2024-03-08T12:11:39;11.50;;;5.90;;
76693;SDS011;69667;52.136;5.424;2024-03-08T12:14:09;13.75;;;5.35;;
76693;SDS011;69667;52.136;5.424;2024-03-08T12:16:43;13.07;;;6.15;;
76693;SDS011;69667;52.136;5.424;2024-03-08T12:19:10;11.75;;;6.78;;
76693;SDS011;69667;52.136;5.424;2024-03-08T12:21:38;9.02;;;5.68;;
76693;SDS011;69667;52.136;5.424;2024-03-08T12:24:13;11.68;;;5.72;;
76693;SDS011;69667;52.136;5.424;2024-03-08T12:26:43;9.18;;;5.07;;
76693;SDS011;69667;52.136;5.424;2024-03-08T12:29:21;12.43;;;6.18;;
76693;SDS011;69667;52.136;5.424;2024-03-08T12:31:59;13.27;;;6.80;;
76693;SDS011;69667;52.136;5.424;2024-03-08T12:34:29;11.13;;;5.85;;
76693;SDS011;69667;52.136;5.424;2024-03-08T12:36:59;12.05;;;5.72;;
76693;SDS011;69667;52.136;5.424;2024-03-08T12:39:34;11.00;;;4.90;;
76693;SDS011;69667;52.136;5.424;2024-03-08T12:42:12;9.25;;;5.07;;
76693;SDS011;69667;52.136;5.424;2024-03-08T12:44:39;10.95;;;5.55;;
76693;SDS011;69667;52.136;5.424;2024-03-08T12:47:10;13.63;;;5.88;;
76693;SDS011;69667;52.136;5.424;2024-03-08T12:49:40;11.10;;;5.82;;
76693;SDS011;69667;52.136;5.424;2024-03-08T12:52:09;12.68;;;6.50;;
76693;SDS011;69667;52.136;5.424;2024-03-08T12:54:37;10.77;;;5.78;;
76693;SDS011;69667;52.136;5.424;2024-03-08T12:57:04;11.80;;;5.85;;
76693;SDS011;69667;52.136;5.424;2024-03-08T12:59:31;12.02;;;6.28;;
76693;SDS011;69667;52.136;5.424;2024-03-08T13:01:59;14.57;;;6.75;;
76693;SDS011;69667;52.136;5.424;2024-03-08T13:04:27;12.95;;;6.65;;
76693;SDS011;69667;52.136;5.424;2024-03-08T13:06:54;12.80;;;6.60;;
76693;SDS011;69667;52.136;5.424;2024-03-08T13:09:22;13.55;;;5.85;;
76693;SDS011;69667;52.136;5.424;2024-03-08T13:11:54;12.55;;;6.32;;
76693;SDS011;69667;52.136;5.424;2024-03-08T13:14:25;14.15;;;6.05;;
76693;SDS011;69667;52.136;5.424;2024-03-08T13:16:52;12.65;;;6.30;;
76693;SDS011;69667;52.136;5.424;2024-03-08T13:19:22;10.95;;;5.97;;
76693;SDS011;69667;52.136;5.424;2024-03-08T13:24:17;16.42;;;6.20;;
76693;SDS011;69667;52.136;5.424;2024-03-08T13:26:47;14.98;;;7.13;;
76693;SDS011;69667;52.136;5.424;2024-03-08T13:29:14;10.57;;;5.63;;
76693;SDS011;69667;52.136;5.424;2024-03-08T13:31:41;12.60;;;6.60;;
76693;SDS011;69667;52.136;5.424;2024-03-08T13:34:08;11.70;;;6.28;;
76693;SDS011;69667;52.136;5.424;2024-03-08T13:36:38;12.73;;;6.53;;
76693;SDS011;69667;52.136;5.424;2024-03-08T13:39:11;13.23;;;6.95;;
76693;SDS011;69667;52.136;5.424;2024-03-08T13:41:42;8.13;;;4.57;;
76693;SDS011;69667;52.136;5.424;2024-03-08T13:44:11;8.95;;;4.82;;
76693;SDS011;69667;52.136;5.424;2024-03-08T13:46:38;16.73;;;7.07;;
76693;SDS011;69667;52.136;5.424;2024-03-08T13:49:07;14.15;;;6.78;;
76693;SDS011;69667;52.136;5.424;2024-03-08T13:51:36;10.18;;;5.63;;
76693;SDS011;69667;52.136;5.424;2024-03-08T13:54:03;13.25;;;7.10;;
76693;SDS011;69667;52.136;5.424;2024-03-08T13:56:33;11.05;;;6.28;;
76693;SDS011;69667;52.136;5.424;2024-03-08T13:59:01;11.95;;;6.40;;
76693;SDS011;69667;52.136;5.424;2024-03-08T14:01:29;11.23;;;5.95;;
76693;SDS011;69667;52.136;5.424;2024-03-08T14:03:57;10.38;;;5.80;;
76693;SDS011;69667;52.136;5.424;2024-03-08T14:06:24;16.45;;;7.20;;
76693;SDS011;69667;52.136;5.424;2024-03-08T14:09:12;11.85;;;6.07;;
76693;SDS011;69667;52.136;5.424;2024-03-08T14:11:43;11.45;;;6.10;;
76693;SDS011;69667;52.136;5.424;2024-03-08T14:14:14;12.80;;;5.93;;
76693;SDS011;69667;52.136;5.424;2024-03-08T14:16:41;13.35;;;6.15;;
76693;SDS011;69667;52.136;5.424;2024-03-08T14:22:10;7.80;;;4.32;;
76693;SDS011;69667;52.136;5.424;2024-03-08T14:24:50;13.43;;;5.63;;
76693;SDS011;69667;52.136;5.424;2024-03-08T14:27:53;18.13;;;6.07;;
76693;SDS011;69667;52.136;5.424;2024-03-08T14:30:21;11.27;;;5.90;;
76693;SDS011;69667;52.136;5.424;2024-03-08T14:33:05;13.43;;;5.95;;
76693;SDS011;69667;52.136;5.424;2024-03-08T14:35:32;12.90;;;5.82;;
76693;SDS011;69667;52.136;5.424;2024-03-08T14:38:01;14.13;;;6.07;;
76693;SDS011;69667;52.136;5.424;2024-03-08T14:40:28;11.07;;;5.95;;
76693;SDS011;69667;52.136;5.424;2024-03-08T14:42:57;11.32;;;5.43;;
76693;SDS011;69667;52.136;5.424;2024-03-08T14:45:30;12.40;;;6.50;;
76693;SDS011;69667;52.136;5.424;2024-03-08T14:47:58;12.57;;;6.30;;
76693;SDS011;69667;52.136;5.424;2024-03-08T14:50:26;11.23;;;5.95;;
76693;SDS011;69667;52.136;5.424;2024-03-08T14:52:53;14.98;;;5.90;;
76693;SDS011;69667;52.136;5.424;2024-03-08T14:55:21;12.35;;;7.38;;
76693;SDS011;69667;52.136;5.424;2024-03-08T14:57:49;12.82;;;5.90;;
76693;SDS011;69667;52.136;5.424;2024-03-08T15:00:22;12.35;;;6.68;;
76693;SDS011;69667;52.136;5.424;2024-03-08T15:03:02;9.27;;;4.82;;
76693;SDS011;69667;52.136;5.424;2024-03-08T15:05:33;10.75;;;6.53;;
76693;SDS011;69667;52.136;5.424;2024-03-08T15:08:05;14.57;;;5.95;;
76693;SDS011;69667;52.136;5.424;2024-03-08T15:10:38;12.57;;;6.75;;
76693;SDS011;69667;52.136;5.424;2024-03-08T15:13:09;14.68;;;6.15;;
76693;SDS011;69667;52.136;5.424;2024-03-08T15:15:42;13.27;;;5.80;;
76693;SDS011;69667;52.136;5.424;2024-03-08T15:18:12;8.80;;;4.40;;
76693;SDS011;69667;52.136;5.424;2024-03-08T15:20:39;8.73;;;4.88;;